createdAt,value
2016-12-14T00:00:04.655Z,737.41
2016-12-14T00:01:04.629Z,737.49
2016-12-14T00:02:04.614Z,737.39
2016-12-14T00:03:04.595Z,737.45
2016-12-14T00:04:04.567Z,737.5
2016-12-14T00:05:04.548Z,737.44
2016-12-14T00:06:04.534Z,737.48
2016-12-14T00:07:04.514Z,737.34
2016-12-14T00:08:04.487Z,737.39
2016-12-14T00:09:04.474Z,737.43
2016-12-14T00:10:04.457Z,737.48
2016-12-14T00:11:04.427Z,737.4
2016-12-14T00:12:04.413Z,737.35
2016-12-14T00:13:04.385Z,737.35
2016-12-14T00:14:04.365Z,737.31
2016-12-14T00:15:04.352Z,737.32
2016-12-14T00:16:04.324Z,737.41
2016-12-14T00:17:04.304Z,737.35
2016-12-14T00:18:04.283Z,737.32
2016-12-14T00:19:04.270Z,737.32
2016-12-14T00:20:04.250Z,737.33
2016-12-14T00:21:04.223Z,737.2
2016-12-14T00:22:04.202Z,737.36
2016-12-14T00:23:04.189Z,737.25
2016-12-14T00:24:04.168Z,737.26
2016-12-14T00:25:04.149Z,737.29
2016-12-14T00:26:04.131Z,737.33
2016-12-14T00:27:04.108Z,737.33
2016-12-14T00:28:04.080Z,737.3
2016-12-14T00:29:04.067Z,737.22
2016-12-14T00:30:04.039Z,737.18
2016-12-14T00:31:04.019Z,737.36
2016-12-14T00:32:04.007Z,737.39
2016-12-14T00:33:03.978Z,737.29
2016-12-14T00:34:03.965Z,737.28
2016-12-14T00:35:03.938Z,737.3
2016-12-14T00:36:03.919Z,737.29
2016-12-14T00:37:03.896Z,737.35
2016-12-14T00:38:03.876Z,737.28
2016-12-14T00:39:03.857Z,737.34
2016-12-14T00:40:03.841Z,737.31
2016-12-14T00:41:03.822Z,737.21
2016-12-14T00:42:03.802Z,737.41
2016-12-14T00:43:03.774Z,737.19
2016-12-14T00:44:03.759Z,737.31
2016-12-14T00:45:03.740Z,737.25
2016-12-14T00:46:03.712Z,737.32
2016-12-14T00:47:03.699Z,737.33
2016-12-14T00:48:03.677Z,737.43
2016-12-14T00:49:03.658Z,737.4
2016-12-14T00:50:03.637Z,737.19
2016-12-14T00:51:03.609Z,737.36
2016-12-14T00:52:03.588Z,737.31
2016-12-14T00:53:03.568Z,737.32
2016-12-14T00:54:03.554Z,737.25
2016-12-14T00:55:03.527Z,737.35
2016-12-14T00:56:03.506Z,737.35
2016-12-14T00:57:03.492Z,737.15
2016-12-14T00:58:03.472Z,737.41
2016-12-14T00:59:03.444Z,737.24
2016-12-14T01:00:03.431Z,737.29
2016-12-14T01:01:03.410Z,737.25
2016-12-14T01:02:03.382Z,737.33
2016-12-14T01:03:03.363Z,737.32
2016-12-14T01:04:03.347Z,737.26
2016-12-14T01:05:03.327Z,737.25
2016-12-14T01:06:03.299Z,737.28
2016-12-14T01:07:03.286Z,737.3
2016-12-14T01:08:03.264Z,737.28
2016-12-14T01:09:03.245Z,737.33
2016-12-14T01:10:03.225Z,737.34
2016-12-14T01:11:03.198Z,737.36
2016-12-14T01:12:03.177Z,737.4
2016-12-14T01:13:03.162Z,737.31
2016-12-14T01:14:03.135Z,737.33
2016-12-14T01:15:03.122Z,737.23
2016-12-14T01:16:03.094Z,737.22
2016-12-14T01:17:03.073Z,737.2
2016-12-14T01:18:03.052Z,737.35
2016-12-14T01:19:03.036Z,737.25
2016-12-14T01:20:03.010Z,737.27
2016-12-14T01:21:02.998Z,737.3
2016-12-14T01:22:02.970Z,737.17
2016-12-14T01:23:02.957Z,737.41
2016-12-14T01:24:02.935Z,737.26
2016-12-14T01:25:02.914Z,737.27
2016-12-14T01:26:02.888Z,737.25
2016-12-14T01:27:02.867Z,737.3
2016-12-14T01:28:02.846Z,737.34
2016-12-14T01:29:02.833Z,737.25
2016-12-14T01:30:02.812Z,737.33
2016-12-14T01:31:02.790Z,737.32
2016-12-14T01:32:02.767Z,737.29
2016-12-14T01:33:02.743Z,737.24
2016-12-14T01:34:02.723Z,737.24
2016-12-14T01:35:02.708Z,737.26
2016-12-14T01:36:02.681Z,737.32
2016-12-14T01:37:02.667Z,737.26
2016-12-14T01:38:02.640Z,737.29
2016-12-14T01:39:02.626Z,737.2
2016-12-14T01:40:02.599Z,737.23
2016-12-14T01:41:02.589Z,737.23
2016-12-14T01:42:02.558Z,737.32
2016-12-14T01:43:02.543Z,737.31
2016-12-14T01:44:02.523Z,737.27
2016-12-14T01:45:02.505Z,737.22
2016-12-14T01:46:02.475Z,737.23
2016-12-14T01:47:02.461Z,737.26
2016-12-14T01:48:02.434Z,737.27
2016-12-14T01:49:02.415Z,737.25
2016-12-14T01:50:02.393Z,737.41
2016-12-14T01:51:02.373Z,737.26
2016-12-14T01:52:02.360Z,737.28
2016-12-14T01:53:02.331Z,737.14
2016-12-14T01:54:02.317Z,737.16
2016-12-14T01:55:02.298Z,737.2
2016-12-14T01:56:02.271Z,737.28
2016-12-14T01:57:02.250Z,737.21
2016-12-14T01:58:02.230Z,737.19
2016-12-14T01:59:02.215Z,737.28
2016-12-14T02:00:02.189Z,737.2
2016-12-14T02:01:02.174Z,737.19
2016-12-14T02:02:02.153Z,737.19
2016-12-14T02:03:02.127Z,737.2
2016-12-14T02:04:02.105Z,737.13
2016-12-14T02:05:02.085Z,737.16
2016-12-14T02:06:02.072Z,737.15
2016-12-14T02:07:02.045Z,737.15
2016-12-14T02:08:02.024Z,737.17
2016-12-14T02:09:02.004Z,737.07
2016-12-14T02:10:01.984Z,737.2
2016-12-14T02:11:01.963Z,737.15
2016-12-14T02:12:01.942Z,737.19
2016-12-14T02:13:01.922Z,737.15
2016-12-14T02:14:01.909Z,737.15
2016-12-14T02:15:01.880Z,737.01
2016-12-14T02:16:01.860Z,737.16
2016-12-14T02:17:01.840Z,736.94
2016-12-14T02:18:01.826Z,737.07
2016-12-14T02:19:01.848Z,737.01
2016-12-14T02:20:01.784Z,737
2016-12-14T02:21:01.758Z,736.97
2016-12-14T02:22:01.738Z,736.98
2016-12-14T02:23:01.717Z,736.92
2016-12-14T02:24:01.702Z,736.91
2016-12-14T02:25:01.676Z,736.96
2016-12-14T02:26:01.654Z,737.01
2016-12-14T02:27:01.634Z,737.02
2016-12-14T02:28:01.614Z,737.02
2016-12-14T02:29:01.601Z,737
2016-12-14T02:30:01.574Z,737
2016-12-14T02:31:01.560Z,737.01
2016-12-14T02:32:01.540Z,737.03
2016-12-14T02:33:01.520Z,737.06
2016-12-14T02:34:01.500Z,736.92
2016-12-14T02:35:01.472Z,736.99
2016-12-14T02:36:01.453Z,737
2016-12-14T02:37:01.431Z,736.98
2016-12-14T02:38:01.411Z,736.99
2016-12-14T02:39:01.391Z,737.03
2016-12-14T02:40:01.372Z,736.78
2016-12-14T02:41:01.357Z,736.91
2016-12-14T02:42:01.331Z,736.97
2016-12-14T02:43:01.318Z,736.94
2016-12-14T02:44:01.291Z,736.99
2016-12-14T02:45:01.272Z,736.95
2016-12-14T02:46:01.263Z,736.92
2016-12-14T02:47:01.232Z,736.92
2016-12-14T02:48:01.211Z,736.97
2016-12-14T02:49:01.199Z,737.04
2016-12-14T02:50:01.179Z,737.02
2016-12-14T02:51:01.152Z,737
2016-12-14T02:52:01.131Z,737.01
2016-12-14T02:53:01.119Z,736.91
2016-12-14T02:54:01.091Z,736.94
2016-12-14T02:55:01.071Z,736.89
2016-12-14T02:56:01.058Z,736.88
2016-12-14T02:57:01.038Z,736.94
2016-12-14T02:58:01.011Z,736.97
2016-12-14T02:59:00.990Z,736.8
2016-12-14T03:00:00.970Z,736.94
2016-12-14T03:01:00.950Z,736.83
2016-12-14T03:02:00.930Z,736.78
2016-12-14T03:03:00.908Z,736.93
2016-12-14T03:04:00.896Z,736.9
2016-12-14T03:05:00.876Z,736.76
2016-12-14T03:06:00.855Z,736.89
2016-12-14T03:07:00.834Z,736.88
2016-12-14T03:08:00.809Z,736.89
2016-12-14T03:09:00.787Z,736.87
2016-12-14T03:10:00.769Z,736.84
2016-12-14T03:11:00.747Z,736.83
2016-12-14T03:12:00.733Z,736.9
2016-12-14T03:13:00.714Z,736.9
2016-12-14T03:14:00.686Z,736.81
2016-12-14T03:15:00.667Z,736.87
2016-12-14T03:16:00.645Z,736.92
2016-12-14T03:17:00.625Z,736.82
2016-12-14T03:18:00.612Z,736.93
2016-12-14T03:19:00.584Z,736.84
2016-12-14T03:20:00.571Z,736.65
2016-12-14T03:21:00.543Z,736.86
2016-12-14T03:22:00.524Z,736.82
2016-12-14T03:23:00.505Z,736.9
2016-12-14T03:24:00.492Z,736.76
2016-12-14T03:25:00.469Z,736.8
2016-12-14T03:26:00.443Z,736.83
2016-12-14T03:27:00.423Z,736.81
2016-12-14T03:28:00.402Z,736.83
2016-12-14T03:29:00.382Z,736.72
2016-12-14T03:30:00.362Z,736.87
2016-12-14T03:31:00.348Z,736.83
2016-12-14T03:32:00.321Z,736.79
2016-12-14T03:33:00.301Z,736.74
2016-12-14T03:34:00.289Z,736.75
2016-12-14T03:35:00.261Z,736.87
2016-12-14T03:36:00.240Z,736.74
2016-12-14T03:37:00.220Z,736.81
2016-12-14T03:38:00.207Z,736.81
2016-12-14T03:39:00.179Z,736.84
2016-12-14T03:40:00.159Z,736.83
2016-12-14T03:41:00.139Z,736.76
2016-12-14T03:42:00.120Z,736.75
2016-12-14T03:43:00.105Z,736.86
2016-12-14T03:44:00.085Z,736.78
2016-12-14T03:45:00.059Z,736.77
2016-12-14T03:46:00.039Z,736.72
2016-12-14T03:47:00.018Z,736.78
2016-12-14T03:48:00.006Z,736.8
2016-12-14T03:48:59.978Z,736.82
2016-12-14T03:49:59.965Z,736.74
2016-12-14T03:50:59.937Z,736.73
2016-12-14T03:51:59.917Z,736.72
2016-12-14T03:52:59.905Z,736.9
2016-12-14T03:53:59.877Z,736.82
2016-12-14T03:54:59.857Z,736.81
2016-12-14T03:55:59.837Z,736.76
2016-12-14T03:56:59.824Z,736.61
2016-12-14T03:57:59.802Z,736.8
2016-12-14T03:58:59.782Z,736.69
2016-12-14T03:59:59.756Z,736.72
2016-12-14T04:00:59.735Z,736.56
2016-12-14T04:01:59.722Z,736.82
2016-12-14T04:02:59.695Z,736.79
2016-12-14T04:03:59.682Z,736.79
2016-12-14T04:04:59.660Z,736.73
2016-12-14T04:05:59.633Z,736.75
2016-12-14T04:06:59.621Z,736.73
2016-12-14T04:07:59.600Z,736.73
2016-12-14T04:08:59.578Z,736.83
2016-12-14T04:09:59.559Z,736.74
2016-12-14T04:10:59.532Z,736.76
2016-12-14T04:11:59.511Z,736.78
2016-12-14T04:12:59.491Z,736.65
2016-12-14T04:13:59.478Z,736.64
2016-12-14T04:14:59.451Z,736.67
2016-12-14T04:15:59.436Z,736.57
2016-12-14T04:16:59.410Z,736.73
2016-12-14T04:17:59.397Z,736.75
2016-12-14T04:18:59.377Z,736.65
2016-12-14T04:19:59.355Z,736.59
2016-12-14T04:20:59.337Z,736.57
2016-12-14T04:21:59.315Z,736.73
2016-12-14T04:22:59.295Z,736.65
2016-12-14T04:23:59.274Z,736.64
2016-12-14T04:24:59.256Z,736.69
2016-12-14T04:25:59.229Z,736.68
2016-12-14T04:26:59.209Z,736.71
2016-12-14T04:27:59.196Z,736.6
2016-12-14T04:28:59.174Z,736.67
2016-12-14T04:29:59.147Z,736.59
2016-12-14T04:30:59.135Z,736.61
2016-12-14T04:31:59.108Z,736.65
2016-12-14T04:32:59.088Z,736.68
2016-12-14T04:33:59.075Z,736.65
2016-12-14T04:34:59.054Z,736.69
2016-12-14T04:35:59.036Z,736.58
2016-12-14T04:36:59.015Z,736.59
2016-12-14T04:37:58.988Z,736.68
2016-12-14T04:38:58.969Z,736.66
2016-12-14T04:39:58.949Z,736.57
2016-12-14T04:40:58.935Z,736.61
2016-12-14T04:41:58.909Z,736.66
2016-12-14T04:42:58.897Z,736.62
2016-12-14T04:43:58.870Z,736.7
2016-12-14T04:44:58.850Z,736.58
2016-12-14T04:45:58.830Z,736.51
2016-12-14T04:46:58.818Z,736.59
2016-12-14T04:47:58.791Z,736.64
2016-12-14T04:48:58.776Z,736.68
2016-12-14T04:49:58.754Z,736.59
2016-12-14T04:50:58.738Z,736.56
2016-12-14T04:51:58.716Z,736.67
2016-12-14T04:52:58.690Z,736.65
2016-12-14T04:53:58.678Z,736.71
2016-12-14T04:54:58.650Z,736.62
2016-12-14T04:55:58.630Z,736.68
2016-12-14T04:56:58.617Z,736.66
2016-12-14T04:57:58.590Z,736.58
2016-12-14T04:58:58.571Z,736.58
2016-12-14T04:59:58.558Z,736.65
2016-12-14T05:00:58.530Z,736.61
2016-12-14T05:01:58.510Z,736.59
2016-12-14T05:02:58.489Z,736.55
2016-12-14T05:03:58.470Z,736.55
2016-12-14T05:04:58.457Z,736.58
2016-12-14T05:05:58.430Z,736.61
2016-12-14T05:06:58.415Z,736.64
2016-12-14T05:07:58.389Z,736.56
2016-12-14T05:08:58.376Z,736.63
2016-12-14T05:09:58.355Z,736.5
2016-12-14T05:10:58.328Z,736.6
2016-12-14T05:11:58.308Z,736.51
2016-12-14T05:12:58.295Z,736.5
2016-12-14T05:13:58.266Z,736.59
2016-12-14T05:14:58.253Z,736.58
2016-12-14T05:15:58.226Z,736.55
2016-12-14T05:16:58.213Z,736.57
2016-12-14T05:17:58.185Z,736.54
2016-12-14T05:18:58.171Z,736.64
2016-12-14T05:19:58.152Z,736.56
2016-12-14T05:20:58.132Z,736.56
2016-12-14T05:21:58.111Z,736.64
2016-12-14T05:22:58.089Z,736.66
2016-12-14T05:23:58.069Z,736.56
2016-12-14T05:24:58.042Z,736.63
2016-12-14T05:25:58.022Z,736.49
2016-12-14T05:26:58.001Z,736.59
2016-12-14T05:27:57.981Z,736.57
2016-12-14T05:28:57.960Z,736.52
2016-12-14T05:29:57.940Z,736.56
2016-12-14T05:30:57.920Z,736.61
2016-12-14T05:31:57.900Z,736.51
2016-12-14T05:32:57.885Z,736.51
2016-12-14T05:33:57.865Z,736.53
2016-12-14T05:34:57.844Z,736.54
2016-12-14T05:35:57.824Z,736.55
2016-12-14T05:36:57.804Z,736.58
2016-12-14T05:37:57.776Z,736.47
2016-12-14T05:38:57.762Z,736.6
2016-12-14T05:39:57.734Z,736.55
2016-12-14T05:40:57.714Z,736.55
2016-12-14T05:41:57.701Z,736.62
2016-12-14T05:42:57.684Z,736.59
2016-12-14T05:43:57.653Z,736.52
2016-12-14T05:44:57.633Z,736.56
2016-12-14T05:45:57.619Z,736.62
2016-12-14T05:46:57.599Z,736.6
2016-12-14T05:47:57.579Z,736.58
2016-12-14T05:48:57.552Z,736.54
2016-12-14T05:49:57.532Z,736.57
2016-12-14T05:50:57.518Z,736.6
2016-12-14T05:51:57.498Z,736.62
2016-12-14T05:52:57.477Z,736.58
2016-12-14T05:53:57.459Z,736.57
2016-12-14T05:54:57.437Z,736.5
2016-12-14T05:55:57.419Z,736.5
2016-12-14T05:56:57.399Z,736.57
2016-12-14T05:57:57.371Z,736.59
2016-12-14T05:58:57.358Z,736.63
2016-12-14T05:59:57.331Z,736.49
2016-12-14T06:00:57.318Z,736.59
2016-12-14T06:01:57.290Z,736.68
2016-12-14T06:02:57.270Z,736.6
2016-12-14T06:03:57.256Z,736.6
2016-12-14T06:04:57.229Z,736.63
2016-12-14T06:05:57.215Z,736.65
2016-12-14T06:06:57.189Z,736.59
2016-12-14T06:07:57.169Z,736.69
2016-12-14T06:08:57.149Z,736.67
2016-12-14T06:09:57.129Z,736.72
2016-12-14T06:10:57.110Z,736.73
2016-12-14T06:11:57.090Z,736.72
2016-12-14T06:12:57.077Z,736.66
2016-12-14T06:13:57.057Z,736.69
2016-12-14T06:14:57.037Z,736.65
2016-12-14T06:15:57.018Z,736.68
2016-12-14T06:16:56.999Z,736.71
2016-12-14T06:17:56.973Z,736.68
2016-12-14T06:18:56.954Z,736.64
2016-12-14T06:19:56.940Z,736.71
2016-12-14T06:20:56.915Z,736.69
2016-12-14T06:21:56.895Z,736.72
2016-12-14T06:22:56.883Z,736.69
2016-12-14T06:23:56.856Z,736.7
2016-12-14T06:24:56.844Z,736.63
2016-12-14T06:25:56.826Z,736.64
2016-12-14T06:26:56.804Z,736.51
2016-12-14T06:27:56.784Z,736.61
2016-12-14T06:28:56.766Z,736.61
2016-12-14T06:29:56.746Z,736.61
2016-12-14T06:30:56.718Z,736.64
2016-12-14T06:31:56.699Z,736.66
2016-12-14T06:32:56.679Z,736.68
2016-12-14T06:33:56.666Z,736.69
2016-12-14T06:34:56.640Z,736.67
2016-12-14T06:35:56.626Z,736.63
2016-12-14T06:36:56.607Z,736.61
2016-12-14T06:37:56.586Z,736.67
2016-12-14T06:38:56.561Z,736.61
2016-12-14T06:39:56.542Z,736.58
2016-12-14T06:40:56.522Z,736.62
2016-12-14T06:41:56.509Z,736.66
2016-12-14T06:42:56.490Z,736.66
2016-12-14T06:43:56.463Z,736.63
2016-12-14T06:44:56.444Z,736.64
2016-12-14T06:45:56.424Z,736.67
2016-12-14T06:46:56.405Z,736.66
2016-12-14T06:47:56.395Z,736.69
2016-12-14T06:48:56.365Z,736.63
2016-12-14T06:49:56.346Z,736.65
2016-12-14T06:50:56.334Z,736.66
2016-12-14T06:51:56.308Z,736.72
2016-12-14T06:52:56.288Z,736.69
2016-12-14T06:53:56.277Z,736.76
2016-12-14T06:54:56.248Z,736.72
2016-12-14T06:55:56.230Z,736.76
2016-12-14T06:56:56.217Z,736.78
2016-12-14T06:57:56.196Z,736.73
2016-12-14T06:58:56.178Z,736.75
2016-12-14T06:59:56.157Z,736.84
2016-12-14T07:00:56.138Z,736.81
2016-12-14T07:01:56.120Z,736.86
2016-12-14T07:02:56.093Z,736.87
2016-12-14T07:03:56.081Z,736.8
2016-12-14T07:04:56.054Z,736.84
2016-12-14T07:05:56.042Z,736.81
2016-12-14T07:06:56.016Z,736.8
2016-12-14T07:07:56.001Z,736.83
2016-12-14T07:08:55.976Z,736.8
2016-12-14T07:09:55.963Z,736.81
2016-12-14T07:10:55.944Z,736.84
2016-12-14T07:11:55.924Z,736.82
2016-12-14T07:12:55.897Z,736.79
2016-12-14T07:13:55.878Z,736.81
2016-12-14T07:14:55.864Z,736.91
2016-12-14T07:15:55.838Z,736.86
2016-12-14T07:16:55.826Z,736.93
2016-12-14T07:17:55.805Z,736.81
2016-12-14T07:18:55.786Z,736.81
2016-12-14T07:19:55.759Z,736.89
2016-12-14T07:20:55.746Z,736.73
2016-12-14T07:21:55.719Z,736.77
2016-12-14T07:22:55.706Z,736.75
2016-12-14T07:23:55.686Z,736.83
2016-12-14T07:24:55.659Z,736.84
2016-12-14T07:25:55.646Z,736.93
2016-12-14T07:26:55.626Z,737.01
2016-12-14T07:27:55.599Z,736.93
2016-12-14T07:28:55.579Z,737
2016-12-14T07:29:55.560Z,736.86
2016-12-14T07:30:55.547Z,736.88
2016-12-14T07:31:55.520Z,736.87
2016-12-14T07:32:55.507Z,736.93
2016-12-14T07:33:55.481Z,736.89
2016-12-14T07:34:55.467Z,736.91
2016-12-14T07:35:55.448Z,736.96
2016-12-14T07:36:55.420Z,736.95
2016-12-14T07:37:55.407Z,736.97
2016-12-14T07:38:55.388Z,736.92
2016-12-14T07:39:55.368Z,736.94
2016-12-14T07:40:55.340Z,736.95
2016-12-14T07:41:55.328Z,736.91
2016-12-14T07:42:55.308Z,736.91
2016-12-14T07:43:55.280Z,736.88
2016-12-14T07:44:55.269Z,736.97
2016-12-14T07:45:55.241Z,736.89
2016-12-14T07:46:55.221Z,736.98
2016-12-14T07:47:55.208Z,736.95
2016-12-14T07:48:55.187Z,736.91
2016-12-14T07:49:55.168Z,736.96
2016-12-14T07:50:55.150Z,736.94
2016-12-14T07:51:55.128Z,736.93
2016-12-14T07:52:55.102Z,736.91
2016-12-14T07:53:55.090Z,736.98
2016-12-14T07:54:55.069Z,736.98
2016-12-14T07:55:55.042Z,736.87
2016-12-14T07:56:55.022Z,736.95
2016-12-14T07:57:55.009Z,736.94
2016-12-14T07:58:54.982Z,736.87
2016-12-14T07:59:54.963Z,736.97
2016-12-14T08:00:54.943Z,736.95
2016-12-14T08:01:54.922Z,736.84
2016-12-14T08:02:54.909Z,736.94
2016-12-14T08:03:54.890Z,736.99
2016-12-14T08:04:54.872Z,736.94
2016-12-14T08:05:54.843Z,736.9
2016-12-14T08:06:54.823Z,736.91
2016-12-14T08:07:55.007Z,736.88
2016-12-14T08:08:54.784Z,736.94
2016-12-14T08:09:54.966Z,736.92
2016-12-14T08:10:54.752Z,736.99
2016-12-14T08:11:54.733Z,737.03
2016-12-14T08:12:54.712Z,736.97
2016-12-14T08:13:54.692Z,737.05
2016-12-14T08:14:54.666Z,737.03
2016-12-14T08:15:54.647Z,737.02
2016-12-14T08:16:54.627Z,737.05
2016-12-14T08:17:54.607Z,737.11
2016-12-14T08:18:54.595Z,737.09
2016-12-14T08:19:54.576Z,737.05
2016-12-14T08:20:54.598Z,737.09
2016-12-14T08:21:54.529Z,737.07
2016-12-14T08:22:54.509Z,737.1
2016-12-14T08:23:54.489Z,737.12
2016-12-14T08:24:54.470Z,737.11
2016-12-14T08:25:54.457Z,737.1
2016-12-14T08:26:54.431Z,737.11
2016-12-14T08:27:54.410Z,737.12
2016-12-14T08:28:54.399Z,737.13
2016-12-14T08:29:54.372Z,737.12
2016-12-14T08:30:54.360Z,737.15
2016-12-14T08:31:54.333Z,737.16
2016-12-14T08:32:54.313Z,737.09
2016-12-14T08:33:54.301Z,737.18
2016-12-14T08:34:54.274Z,737.16
2016-12-14T08:35:54.254Z,737.17
2016-12-14T08:36:54.235Z,737.18
2016-12-14T08:37:54.425Z,737.28
2016-12-14T08:38:54.405Z,737.21
2016-12-14T08:39:54.188Z,737.17
2016-12-14T08:40:54.158Z,737.29
2016-12-14T08:41:54.138Z,737.24
2016-12-14T08:42:54.118Z,737.16
2016-12-14T08:43:54.107Z,737.2
2016-12-14T08:44:54.086Z,737.19
2016-12-14T08:45:54.067Z,737.13
2016-12-14T08:46:54.041Z,737.22
2016-12-14T08:47:54.028Z,737.24
2016-12-14T08:48:54.003Z,737.24
2016-12-14T08:49:53.992Z,737.23
2016-12-14T08:50:53.963Z,737.27
2016-12-14T08:51:53.944Z,737.21
2016-12-14T08:52:53.931Z,737.22
2016-12-14T08:53:53.913Z,737.3
2016-12-14T08:54:53.887Z,737.32
2016-12-14T08:55:53.869Z,737.19
2016-12-14T08:56:53.847Z,737.19
2016-12-14T08:57:53.835Z,737.29
2016-12-14T08:58:53.810Z,737.28
2016-12-14T08:59:53.791Z,737.31
2016-12-14T09:00:53.771Z,737.31
2016-12-14T09:01:53.760Z,737.29
2016-12-14T09:02:53.733Z,737.37
2016-12-14T09:03:53.722Z,737.3
2016-12-14T09:04:53.696Z,737.27
2016-12-14T09:05:53.685Z,737.32
2016-12-14T09:06:53.868Z,737.26
2016-12-14T09:07:53.639Z,737.36
2016-12-14T09:08:53.621Z,737.37
2016-12-14T09:09:53.602Z,737.39
2016-12-14T09:10:53.593Z,737.32
2016-12-14T09:11:53.570Z,737.38
2016-12-14T09:12:53.545Z,737.33
2016-12-14T09:13:53.526Z,737.41
2016-12-14T09:14:53.506Z,737.31
2016-12-14T09:15:53.494Z,737.35
2016-12-14T09:16:53.476Z,737.35
2016-12-14T09:17:53.458Z,737.26
2016-12-14T09:18:53.431Z,737.25
2016-12-14T09:19:53.418Z,737.34
2016-12-14T09:20:53.399Z,737.24
2016-12-14T09:21:53.382Z,737.33
2016-12-14T09:22:53.361Z,737.29
2016-12-14T09:23:53.336Z,737.3
2016-12-14T09:24:53.324Z,737.35
2016-12-14T09:25:53.303Z,737.34
2016-12-14T09:26:53.278Z,737.35
2016-12-14T09:27:53.267Z,737.39
2016-12-14T09:28:53.249Z,737.4
2016-12-14T09:29:53.221Z,737.37
2016-12-14T09:30:53.202Z,737.39
2016-12-14T09:31:53.184Z,737.36
2016-12-14T09:32:53.165Z,737.34
2016-12-14T09:33:53.152Z,737.34
2016-12-14T09:34:53.126Z,737.3
2016-12-14T09:35:53.114Z,737.28
2016-12-14T09:36:53.088Z,737.28
2016-12-14T09:37:53.077Z,737.28
2016-12-14T09:38:53.051Z,737.38
2016-12-14T09:39:53.033Z,737.36
2016-12-14T09:40:53.014Z,737.34
2016-12-14T09:41:53.002Z,737.27
2016-12-14T09:42:52.977Z,737.26
2016-12-14T09:43:52.967Z,737.22
2016-12-14T09:44:52.939Z,737.22
2016-12-14T09:45:52.920Z,737.23
2016-12-14T09:46:52.902Z,737.23
2016-12-14T09:47:52.882Z,737.22
2016-12-14T09:48:52.869Z,737.32
2016-12-14T09:49:52.852Z,737.32
2016-12-14T09:50:52.826Z,737.3
2016-12-14T09:51:52.813Z,737.29
2016-12-14T09:52:52.794Z,737.22
2016-12-14T09:53:52.775Z,737.27
2016-12-14T09:54:52.757Z,737.31
2016-12-14T09:55:52.736Z,737.31
2016-12-14T09:56:52.711Z,737.31
2016-12-14T09:57:52.699Z,737.33
2016-12-14T09:58:52.679Z,737.31
2016-12-14T09:59:52.654Z,737.34
2016-12-14T10:00:52.642Z,737.37
2016-12-14T10:01:52.623Z,737.35
2016-12-14T10:02:52.598Z,737.31
2016-12-14T10:03:52.580Z,737.3
2016-12-14T10:04:52.561Z,737.27
2016-12-14T10:05:52.543Z,737.34
2016-12-14T10:06:52.524Z,737.34
2016-12-14T10:07:52.506Z,737.31
2016-12-14T10:08:52.489Z,737.38
2016-12-14T10:09:52.470Z,737.27
2016-12-14T10:10:52.452Z,737.28
2016-12-14T10:11:52.435Z,737.28
2016-12-14T10:12:52.417Z,737.3
2016-12-14T10:13:52.398Z,737.28
2016-12-14T10:14:52.380Z,737.35
2016-12-14T10:15:52.370Z,737.35
2016-12-14T10:16:52.352Z,737.4
2016-12-14T10:17:52.328Z,737.29
2016-12-14T10:18:52.308Z,737.3
2016-12-14T10:19:52.297Z,737.33
2016-12-14T10:20:52.271Z,737.28
2016-12-14T10:21:52.261Z,737.28
2016-12-14T10:22:52.242Z,737.3
2016-12-14T10:23:52.225Z,737.34
2016-12-14T10:24:52.206Z,737.35
2016-12-14T10:25:52.188Z,737.33
2016-12-14T10:26:52.170Z,737.34
2016-12-14T10:27:52.144Z,737.38
2016-12-14T10:28:52.127Z,737.41
2016-12-14T10:29:52.107Z,737.41
2016-12-14T10:30:52.095Z,737.42
2016-12-14T10:31:52.077Z,737.43
2016-12-14T10:32:52.051Z,737.38
2016-12-14T10:33:52.033Z,737.33
2016-12-14T10:34:52.015Z,737.31
2016-12-14T10:35:51.996Z,737.36
2016-12-14T10:36:51.985Z,737.32
2016-12-14T10:37:51.960Z,737.22
2016-12-14T10:38:51.949Z,737.21
2016-12-14T10:39:51.924Z,737.14
2016-12-14T10:40:51.905Z,737.2
2016-12-14T10:41:51.890Z,737.27
2016-12-14T10:42:51.868Z,737.24
2016-12-14T10:43:51.850Z,737.21
2016-12-14T10:44:51.839Z,737.28
2016-12-14T10:45:51.820Z,737.23
2016-12-14T10:46:51.795Z,737.24
2016-12-14T10:47:51.777Z,737.3
2016-12-14T10:48:51.759Z,737.31
2016-12-14T10:49:51.747Z,737.26
2016-12-14T10:50:51.721Z,737.32
2016-12-14T10:51:51.703Z,737.34
2016-12-14T10:52:51.692Z,737.29
2016-12-14T10:53:51.672Z,737.29
2016-12-14T10:54:51.648Z,737.3
2016-12-14T10:55:51.636Z,737.26
2016-12-14T10:56:51.612Z,737.26
2016-12-14T10:57:51.592Z,737.31
2016-12-14T10:58:51.574Z,737.28
2016-12-14T10:59:51.556Z,737.27
2016-12-14T11:00:51.545Z,737.31
2016-12-14T11:01:51.518Z,737.41
2016-12-14T11:02:51.508Z,737.43
2016-12-14T11:03:51.491Z,737.38
2016-12-14T11:04:51.472Z,737.42
2016-12-14T11:05:51.456Z,737.37
2016-12-14T11:06:51.437Z,737.29
2016-12-14T11:07:51.419Z,737.32
2016-12-14T11:08:51.403Z,737.37
2016-12-14T11:09:51.378Z,737.29
2016-12-14T11:10:51.360Z,737.34
2016-12-14T11:11:51.342Z,737.23
2016-12-14T11:12:51.325Z,737.33
2016-12-14T11:13:51.307Z,737.31
2016-12-14T11:14:51.297Z,737.32
2016-12-14T11:15:51.271Z,737.3
2016-12-14T11:16:51.261Z,737.3
2016-12-14T11:17:51.246Z,737.34
2016-12-14T11:18:51.219Z,737.28
2016-12-14T11:19:51.206Z,737.35
2016-12-14T11:20:51.190Z,737.31
2016-12-14T11:21:51.172Z,737.28
2016-12-14T11:22:51.153Z,737.25
2016-12-14T11:23:51.136Z,737.28
2016-12-14T11:24:51.112Z,737.42
2016-12-14T11:25:51.095Z,737.34
2016-12-14T11:26:51.076Z,737.29
2016-12-14T11:27:51.062Z,737.28
2016-12-14T11:28:51.041Z,737.3
2016-12-14T11:29:51.024Z,737.24
2016-12-14T11:30:51.012Z,737.26
2016-12-14T11:31:50.995Z,737.25
2016-12-14T11:32:50.979Z,737.23
2016-12-14T11:33:50.960Z,737.16
2016-12-14T11:34:50.936Z,737.23
2016-12-14T11:35:50.925Z,737.25
2016-12-14T11:36:50.902Z,737.21
2016-12-14T11:37:50.894Z,737.23
2016-12-14T11:38:50.867Z,737.13
2016-12-14T11:39:50.850Z,737.26
2016-12-14T11:40:50.841Z,737.16
2016-12-14T11:41:50.816Z,737.21
2016-12-14T11:42:50.806Z,737.25
2016-12-14T11:43:50.783Z,737.14
2016-12-14T11:44:50.771Z,737.22
2016-12-14T11:45:50.854Z,737.2
2016-12-14T11:46:50.731Z,737.21
2016-12-14T11:47:50.715Z,737.12
2016-12-14T11:48:50.703Z,737.15
2016-12-14T11:49:50.681Z,737.16
2016-12-14T11:50:50.664Z,737.2
2016-12-14T11:51:50.655Z,737.24
2016-12-14T11:52:50.636Z,737.2
2016-12-14T11:53:50.613Z,737.2
2016-12-14T11:54:50.604Z,737.17
2016-12-14T11:55:50.587Z,737.19
2016-12-14T11:56:50.564Z,737.18
2016-12-14T11:57:50.548Z,737.19
2016-12-14T11:58:50.531Z,737.19
2016-12-14T11:59:50.522Z,737.14
2016-12-14T12:00:50.499Z,737.12
2016-12-14T12:01:50.484Z,737.1
2016-12-14T12:02:50.468Z,737.09
2016-12-14T12:03:50.456Z,737.13
2016-12-14T12:04:50.437Z,737.14
2016-12-14T12:05:50.422Z,737.12
2016-12-14T12:06:50.407Z,737.08
2016-12-14T12:07:50.392Z,737.09
2016-12-14T12:08:50.377Z,737.11
2016-12-14T12:09:50.363Z,737.1
2016-12-14T12:10:50.347Z,737.13
2016-12-14T12:11:50.333Z,737.08
2016-12-14T12:12:50.322Z,737.11
2016-12-14T12:13:50.304Z,737.12
2016-12-14T12:14:50.290Z,737.11
2016-12-14T12:15:50.278Z,737.08
2016-12-14T12:16:50.262Z,737.05
2016-12-14T12:17:50.247Z,737.03
2016-12-14T12:18:50.234Z,737.04
2016-12-14T12:19:50.220Z,737.06
2016-12-14T12:20:50.206Z,737.07
2016-12-14T12:21:50.192Z,737.1
2016-12-14T12:22:50.178Z,737.09
2016-12-14T12:23:50.167Z,737.12
2016-12-14T12:24:50.150Z,737.15
2016-12-14T12:25:50.136Z,737.1
2016-12-14T12:26:50.122Z,737.06
2016-12-14T12:27:50.109Z,737.09
2016-12-14T12:28:50.095Z,737.07
2016-12-14T12:29:50.081Z,737.09
2016-12-14T12:30:50.068Z,737.08